createdAt,value
2023-05-06T00:02:25.815Z,43.17
2023-05-06T00:04:53.733Z,43.27
2023-05-06T00:07:21.922Z,43.33
2023-05-06T00:09:49.572Z,43.27
2023-05-06T00:12:17.275Z,43.21
2023-05-06T00:14:44.898Z,43.21
2023-05-06T00:17:12.609Z,43.35
2023-05-06T00:19:40.203Z,43.26
2023-05-06T00:22:07.836Z,43.30
2023-05-06T00:24:35.681Z,43.26
2023-05-06T00:27:03.485Z,43.30
2023-05-06T00:29:31.113Z,43.41
2023-05-06T00:31:58.749Z,43.33
2023-05-06T00:34:26.476Z,43.55
2023-05-06T00:36:54.156Z,43.52
2023-05-06T00:39:22.339Z,43.50
2023-05-06T00:41:50.294Z,43.45
2023-05-06T00:44:17.960Z,43.45
2023-05-06T00:46:45.742Z,43.62
2023-05-06T00:49:13.430Z,43.64
2023-05-06T00:51:41.162Z,43.63
2023-05-06T00:54:09.236Z,43.62
2023-05-06T00:56:37.062Z,43.53
2023-05-06T00:59:05.468Z,43.62
2023-05-06T01:01:33.192Z,43.67
2023-05-06T01:04:01.402Z,43.67
2023-05-06T01:06:45.122Z,43.69
2023-05-06T01:09:44.671Z,43.77
2023-05-06T01:12:21.262Z,43.77
2023-05-06T01:15:02.024Z,43.89
2023-05-06T01:17:33.583Z,43.78
2023-05-06T01:20:04.649Z,43.83
2023-05-06T01:22:36.379Z,43.82
2023-05-06T01:25:04.875Z,43.80
2023-05-06T01:27:32.745Z,43.81
2023-05-06T01:30:01.307Z,43.86
2023-05-06T01:32:41.631Z,43.95
2023-05-06T01:35:18.156Z,43.93
2023-05-06T01:38:05.986Z,43.88
2023-05-06T01:40:35.319Z,43.99
2023-05-06T01:43:06.263Z,43.97
2023-05-06T01:45:36.754Z,43.92
2023-05-06T01:48:05.893Z,43.92
2023-05-06T01:50:34.749Z,44.01
2023-05-06T01:53:03.349Z,43.93
2023-05-06T01:55:32.108Z,43.99
2023-05-06T01:57:59.761Z,43.92
2023-05-06T02:00:27.506Z,44.03
2023-05-06T02:02:55.163Z,44.05
2023-05-06T02:05:23.718Z,43.89
2023-05-06T02:07:52.583Z,43.92
2023-05-06T02:10:20.741Z,44.06
2023-05-06T02:12:54.211Z,44.07
2023-05-06T02:15:22.251Z,44.09
2023-05-06T02:17:49.895Z,44.06
2023-05-06T02:20:17.656Z,44.10
2023-05-06T02:22:45.347Z,44.06
2023-05-06T02:25:12.984Z,44.02
2023-05-06T02:27:40.605Z,44.10
2023-05-06T02:30:08.787Z,44.12
2023-05-06T02:32:36.718Z,44.13
2023-05-06T02:35:04.985Z,44.12
2023-05-06T02:37:33.058Z,44.15
2023-05-06T02:40:02.567Z,44.18
2023-05-06T02:42:35.271Z,44.10
2023-05-06T02:45:04.688Z,44.16
2023-05-06T02:47:33.371Z,44.26
2023-05-06T02:50:01.181Z,44.20
2023-05-06T02:52:28.883Z,44.29
2023-05-06T02:54:56.504Z,44.26
2023-05-06T02:57:24.277Z,44.21
2023-05-06T02:59:52.271Z,44.23
2023-05-06T03:02:19.967Z,44.27
2023-05-06T03:04:48.022Z,44.30
2023-05-06T03:07:16.008Z,44.39
2023-05-06T03:09:44.718Z,44.25
2023-05-06T03:12:12.773Z,44.31
2023-05-06T03:14:40.596Z,44.42
2023-05-06T03:17:08.352Z,44.31
2023-05-06T03:19:36.980Z,44.32
2023-05-06T03:22:06.367Z,44.35
2023-05-06T03:24:34.712Z,44.40
2023-05-06T03:27:03.309Z,44.41
2023-05-06T03:29:31.019Z,44.36
2023-05-06T03:32:03.748Z,44.37
2023-05-06T03:34:32.500Z,44.43
2023-05-06T03:37:00.544Z,44.43
2023-05-06T03:39:28.923Z,44.58
2023-05-06T03:41:57.553Z,44.68
2023-05-06T03:44:26.148Z,44.56
2023-05-06T03:46:54.345Z,44.62
2023-05-06T03:49:22.679Z,44.68
2023-05-06T03:51:50.963Z,44.72
2023-05-06T03:54:19.260Z,44.74
2023-05-06T03:56:47.596Z,44.73
2023-05-06T03:59:17.572Z,44.91
2023-05-06T04:01:46.176Z,44.84
2023-05-06T04:04:14.355Z,44.70
2023-05-06T04:06:42.286Z,44.85
2023-05-06T04:09:09.946Z,44.91
2023-05-06T04:11:39.910Z,44.91
2023-05-06T04:14:08.055Z,44.98
2023-05-06T04:16:36.654Z,45.01
2023-05-06T04:19:06.455Z,45.03
2023-05-06T04:21:35.639Z,45.04
2023-05-06T04:24:06.899Z,45.10
2023-05-06T04:26:37.732Z,45.03
2023-05-06T04:29:05.706Z,45.00
2023-05-06T04:31:36.831Z,45.01
2023-05-06T04:34:06.074Z,44.99
2023-05-06T04:36:34.323Z,44.97
2023-05-06T04:39:18.061Z,45.00
2023-05-06T04:41:46.243Z,44.97
2023-05-06T04:44:16.674Z,44.98
2023-05-06T04:46:45.534Z,44.95
2023-05-06T04:49:13.695Z,45.00
2023-05-06T04:51:41.778Z,44.98
2023-05-06T04:54:09.860Z,45.01
2023-05-06T04:56:38.488Z,45.09
2023-05-06T04:59:06.538Z,45.08
2023-05-06T05:01:35.155Z,45.08
2023-05-06T05:04:02.877Z,45.17
2023-05-06T05:06:31.803Z,45.16
2023-05-06T05:08:59.976Z,45.17
2023-05-06T05:11:28.165Z,45.10
2023-05-06T05:13:58.365Z,45.17
2023-05-06T05:16:27.347Z,45.24
2023-05-06T05:18:56.200Z,45.28
2023-05-06T05:21:27.697Z,45.24
2023-05-06T05:23:56.384Z,45.18
2023-05-06T05:26:24.545Z,45.24
2023-05-06T05:28:53.149Z,45.21
2023-05-06T05:31:20.943Z,45.34
2023-05-06T05:33:49.036Z,45.25
2023-05-06T05:36:17.856Z,45.33
2023-05-06T05:38:47.807Z,45.37
2023-05-06T05:41:17.536Z,45.39
2023-05-06T05:43:45.773Z,45.41
2023-05-06T05:46:14.198Z,45.47
2023-05-06T05:48:43.638Z,45.49
2023-05-06T05:51:11.517Z,45.47
2023-05-06T05:53:40.189Z,45.47
2023-05-06T05:56:07.954Z,45.51
2023-05-06T05:58:35.800Z,45.56
2023-05-06T06:01:04.109Z,45.54
2023-05-06T06:03:32.762Z,45.72
2023-05-06T06:06:01.198Z,45.64
2023-05-06T06:08:29.799Z,45.74
2023-05-06T06:10:58.956Z,45.82
2023-05-06T06:13:30.819Z,45.85
2023-05-06T06:16:00.638Z,46.00
2023-05-06T06:18:28.364Z,45.90
2023-05-06T06:20:56.082Z,45.91
2023-05-06T06:23:24.863Z,46.10
2023-05-06T06:25:52.480Z,46.09
2023-05-06T06:28:20.135Z,46.10
2023-05-06T06:30:48.107Z,46.06
2023-05-06T06:33:15.767Z,46.31
2023-05-06T06:35:43.745Z,46.40
2023-05-06T06:38:12.418Z,46.35
2023-05-06T06:40:40.031Z,46.33
2023-05-06T06:43:07.692Z,46.38
2023-05-06T06:46:01.746Z,46.53
2023-05-06T06:48:29.523Z,46.48
2023-05-06T06:50:57.226Z,46.46
2023-05-06T06:53:24.914Z,46.51
2023-05-06T06:55:52.538Z,46.52
2023-05-06T06:58:20.136Z,46.51
2023-05-06T07:00:47.787Z,46.72
2023-05-06T07:03:19.235Z,46.70
2023-05-06T07:05:46.929Z,46.60
2023-05-06T07:08:14.736Z,46.66
2023-05-06T07:10:42.359Z,46.62
2023-05-06T07:13:10.462Z,46.75
2023-05-06T07:15:38.181Z,46.77
2023-05-06T07:18:06.355Z,46.65
2023-05-06T07:20:33.996Z,46.62
2023-05-06T07:23:01.637Z,46.69
2023-05-06T07:25:31.253Z,46.77
2023-05-06T07:27:58.994Z,46.73
2023-05-06T07:30:26.733Z,46.60
2023-05-06T07:32:54.512Z,46.54
2023-05-06T07:35:22.150Z,46.53
2023-05-06T07:37:50.166Z,46.48
2023-05-06T07:40:17.824Z,46.54
2023-05-06T07:42:45.622Z,46.46
2023-05-06T07:45:13.365Z,46.36
2023-05-06T07:47:41.371Z,46.35
2023-05-06T07:50:10.453Z,46.37
2023-05-06T07:52:38.169Z,46.30
2023-05-06T07:55:09.199Z,46.06
2023-05-06T07:57:37.256Z,46.03
2023-05-06T08:00:06.219Z,46.11
2023-05-06T08:02:44.501Z,45.93
2023-05-06T08:05:13.567Z,45.98
2023-05-06T08:07:41.991Z,45.85
2023-05-06T08:10:10.281Z,45.96
2023-05-06T08:12:38.221Z,45.84
2023-05-06T08:15:06.929Z,45.80
2023-05-06T08:17:34.768Z,45.84
2023-05-06T08:20:02.513Z,45.83
2023-05-06T08:22:30.215Z,45.76
2023-05-06T08:24:58.109Z,45.85
2023-05-06T08:27:25.716Z,45.70
2023-05-06T08:29:53.341Z,45.76
2023-05-06T08:32:21.180Z,45.84
2023-05-06T08:34:48.818Z,45.73
2023-05-06T08:37:16.623Z,45.78
2023-05-06T08:39:45.555Z,45.75
2023-05-06T08:42:13.492Z,45.78
2023-05-06T08:44:43.739Z,45.79
2023-05-06T08:47:11.854Z,45.87
2023-05-06T08:49:39.650Z,45.78
2023-05-06T08:52:08.535Z,45.81
2023-05-06T08:54:37.010Z,45.74
2023-05-06T08:57:10.311Z,45.53
2023-05-06T08:59:41.474Z,45.51
2023-05-06T09:02:11.116Z,45.67
2023-05-06T09:04:39.667Z,45.40
2023-05-06T09:07:08.141Z,45.25
2023-05-06T09:09:35.808Z,45.26
2023-05-06T09:12:04.183Z,45.16
2023-05-06T09:14:31.769Z,45.06
2023-05-06T09:16:59.444Z,44.88
2023-05-06T09:19:27.226Z,44.88
2023-05-06T09:21:54.884Z,44.79
2023-05-06T09:24:23.695Z,44.74
2023-05-06T09:26:55.352Z,44.64
2023-05-06T09:29:23.076Z,44.52
2023-05-06T09:31:53.665Z,44.58
2023-05-06T09:34:22.572Z,44.44
2023-05-06T09:36:52.499Z,44.51
2023-05-06T09:39:25.680Z,44.57
2023-05-06T09:41:54.494Z,44.04
2023-05-06T09:44:23.987Z,43.99
2023-05-06T09:46:52.141Z,43.73
2023-05-06T09:49:20.433Z,43.88
2023-05-06T09:51:51.488Z,43.81
2023-05-06T09:54:19.546Z,43.59
2023-05-06T09:56:48.736Z,43.49
2023-05-06T09:59:18.458Z,43.18
2023-05-06T10:01:46.962Z,43.15
2023-05-06T10:04:17.370Z,43.13
2023-05-06T10:06:48.925Z,43.14
2023-05-06T10:09:18.149Z,42.99
2023-05-06T10:11:47.392Z,43.05
2023-05-06T10:14:15.598Z,42.90
2023-05-06T10:16:43.434Z,42.96
2023-05-06T10:19:12.138Z,42.84
2023-05-06T10:21:43.279Z,42.95
2023-05-06T10:24:13.423Z,42.79
2023-05-06T10:26:45.178Z,42.72
2023-05-06T10:29:13.503Z,42.57
2023-05-06T10:31:57.845Z,42.60
2023-05-06T10:34:27.005Z,42.49
2023-05-06T10:36:57.660Z,42.54
2023-05-06T10:39:26.644Z,42.80
2023-05-06T10:41:55.016Z,42.73
2023-05-06T10:44:53.484Z,42.50
2023-05-06T10:47:22.134Z,42.58
2023-05-06T10:50:21.918Z,42.69
2023-05-06T10:52:55.426Z,42.95
2023-05-06T10:55:38.871Z,43.24
2023-05-06T10:58:18.804Z,43.64
2023-05-06T11:00:57.981Z,43.61
2023-05-06T11:03:25.898Z,44.32
2023-05-06T11:05:53.749Z,44.65
2023-05-06T11:08:23.606Z,44.77
2023-05-06T11:10:52.374Z,44.60
2023-05-06T11:13:20.119Z,44.78
2023-05-06T11:15:51.790Z,44.72
2023-05-06T11:18:30.464Z,45.05
2023-05-06T11:21:02.679Z,45.29
2023-05-06T11:24:00.469Z,45.46
2023-05-06T11:26:28.076Z,45.62
2023-05-06T11:28:55.878Z,46.08
2023-05-06T11:31:24.153Z,46.13
2023-05-06T11:33:54.283Z,46.36
2023-05-06T11:36:21.904Z,46.30
2023-05-06T11:38:56.274Z,46.46
2023-05-06T11:41:23.891Z,46.45
2023-05-06T11:43:53.243Z,46.45
2023-05-06T11:46:23.342Z,46.60
2023-05-06T11:48:51.242Z,46.81
2023-05-06T11:51:23.017Z,47.24
2023-05-06T11:53:52.377Z,47.69
2023-05-06T11:56:19.968Z,47.31
2023-05-06T11:58:47.585Z,47.69
2023-05-06T12:01:15.180Z,47.48
2023-05-06T12:03:42.914Z,47.76
2023-05-06T12:06:12.630Z,48.05
2023-05-06T12:08:40.667Z,48.53
2023-05-06T12:11:09.430Z,48.48
2023-05-06T12:13:37.821Z,48.42
2023-05-06T12:16:07.712Z,48.56
2023-05-06T12:18:36.054Z,48.80
2023-05-06T12:21:04.360Z,49.13
2023-05-06T12:23:32.214Z,49.56
2023-05-06T12:26:01.316Z,49.43
2023-05-06T12:28:29.777Z,49.65
2023-05-06T12:30:57.627Z,49.99
2023-05-06T12:33:25.413Z,50.16
2023-05-06T12:35:54.738Z,50.47
2023-05-06T12:38:22.339Z,50.69
2023-05-06T12:40:55.468Z,50.71
2023-05-06T12:43:30.938Z,51.07
2023-05-06T12:46:14.883Z,51.38
2023-05-06T12:49:00.459Z,51.39
2023-05-06T12:51:30.665Z,51.73
2023-05-06T12:53:58.312Z,51.69
2023-05-06T12:56:26.039Z,52.10
2023-05-06T12:58:58.850Z,52.23
2023-05-06T13:01:26.847Z,52.58
2023-05-06T13:03:58.374Z,52.38
2023-05-06T13:06:26.109Z,52.66
2023-05-06T13:08:53.877Z,52.56
2023-05-06T13:11:22.134Z,52.81
2023-05-06T13:13:49.770Z,52.67
2023-05-06T13:16:17.515Z,53.06
2023-05-06T13:18:45.640Z,53.21
2023-05-06T13:21:14.027Z,53.44
2023-05-06T13:23:47.782Z,53.67
2023-05-06T13:26:15.839Z,53.43
2023-05-06T13:28:43.594Z,53.69
2023-05-06T13:31:11.223Z,53.59
2023-05-06T13:33:38.967Z,53.95
2023-05-06T13:36:06.783Z,53.67
2023-05-06T13:38:34.375Z,53.53
2023-05-06T13:41:01.988Z,53.47
2023-05-06T13:43:29.625Z,53.67
2023-05-06T13:45:57.295Z,53.66
2023-05-06T13:48:24.958Z,53.24
2023-05-06T13:50:52.647Z,53.13
2023-05-06T13:53:20.483Z,53.08
2023-05-06T13:55:48.364Z,53.18
2023-05-06T13:58:17.133Z,53.15
2023-05-06T14:00:44.882Z,53.57
2023-05-06T14:03:12.575Z,53.22
2023-05-06T14:05:40.318Z,53.17
2023-05-06T14:08:08.293Z,53.06
2023-05-06T14:10:35.897Z,53.21
2023-05-06T14:13:06.786Z,53.46
2023-05-06T14:15:34.980Z,53.01
2023-05-06T14:18:03.966Z,53.15
2023-05-06T14:20:31.761Z,52.96
2023-05-06T14:22:59.385Z,52.73
2023-05-06T14:25:27.942Z,52.76
2023-05-06T14:27:55.985Z,52.51
2023-05-06T14:30:25.666Z,52.70
2023-05-06T14:32:53.456Z,53.05
2023-05-06T14:35:21.292Z,52.82
2023-05-06T14:37:48.964Z,52.78
2023-05-06T14:40:17.155Z,52.46
2023-05-06T14:42:45.908Z,52.33
2023-05-06T14:45:13.842Z,52.37
2023-05-06T14:47:42.759Z,52.24
2023-05-06T14:50:12.340Z,52.14
2023-05-06T14:52:41.206Z,52.01
2023-05-06T14:55:10.653Z,52.03
2023-05-06T14:57:38.699Z,51.98
2023-05-06T15:00:14.673Z,51.99
2023-05-06T15:02:42.492Z,51.87
2023-05-06T15:05:10.818Z,52.00
2023-05-06T15:07:39.267Z,52.03
2023-05-06T15:10:07.721Z,52.19
2023-05-06T15:12:36.230Z,52.03
2023-05-06T15:15:05.126Z,52.32
2023-05-06T15:17:33.491Z,52.68
2023-05-06T15:20:01.209Z,52.65
2023-05-06T15:22:28.941Z,52.58
2023-05-06T15:24:56.624Z,52.30
2023-05-06T15:27:24.205Z,51.85
2023-05-06T15:29:51.798Z,51.91
2023-05-06T15:32:19.461Z,52.12
2023-05-06T15:34:47.086Z,52.53
2023-05-06T15:37:19.133Z,52.66
2023-05-06T15:39:47.776Z,52.55
2023-05-06T15:42:18.624Z,52.36
2023-05-06T15:44:48.271Z,52.21
2023-05-06T15:47:16.207Z,52.39
2023-05-06T15:52:14.424Z,52.60
2023-05-06T15:54:42.118Z,52.47
2023-05-06T15:57:09.808Z,52.31
2023-05-06T15:59:37.499Z,52.31
2023-05-06T16:04:36.972Z,52.22
2023-05-06T16:07:04.977Z,52.20
2023-05-06T16:09:32.627Z,52.18
2023-05-06T16:12:00.307Z,52.33
2023-05-06T16:14:27.892Z,52.30
2023-05-06T16:16:55.828Z,51.98
2023-05-06T16:19:23.475Z,51.95
2023-05-06T16:21:51.269Z,51.94
2023-05-06T16:24:19.201Z,51.94
2023-05-06T16:26:47.083Z,51.90
2023-05-06T16:29:18.850Z,51.55
2023-05-06T16:31:47.299Z,51.57
2023-05-06T16:34:15.325Z,51.58
2023-05-06T16:36:43.581Z,51.72
2023-05-06T16:39:11.174Z,51.69
2023-05-06T16:41:38.825Z,51.56
2023-05-06T16:44:06.480Z,51.44
2023-05-06T16:46:34.208Z,51.38
2023-05-06T16:49:03.765Z,51.40
2023-05-06T16:51:31.919Z,51.41
2023-05-06T16:53:59.516Z,51.36
2023-05-06T16:56:36.749Z,51.47
2023-05-06T16:59:08.199Z,51.30
2023-05-06T17:01:35.837Z,51.20
2023-05-06T17:04:03.519Z,51.29
2023-05-06T17:06:32.855Z,51.11
2023-05-06T17:09:00.710Z,50.75
2023-05-06T17:11:28.334Z,50.68
2023-05-06T17:13:55.993Z,50.79
2023-05-06T17:16:23.681Z,50.76
2023-05-06T17:18:51.410Z,50.90
2023-05-06T17:21:20.546Z,50.86
2023-05-06T17:23:48.240Z,50.73
2023-05-06T17:26:17.716Z,50.65
2023-05-06T17:28:45.311Z,50.56
2023-05-06T17:31:15.565Z,50.65
2023-05-06T17:33:47.063Z,50.53
2023-05-06T17:36:16.556Z,50.55
2023-05-06T17:38:44.196Z,50.77
2023-05-06T17:41:12.124Z,50.75
2023-05-06T17:43:39.760Z,50.90
2023-05-06T17:46:09.323Z,50.91
2023-05-06T17:48:37.182Z,50.69
2023-05-06T17:51:04.897Z,50.78
2023-05-06T17:53:34.000Z,50.88
2023-05-06T17:56:01.667Z,50.92
2023-05-06T17:58:29.266Z,50.95
2023-05-06T18:00:57.525Z,50.97
2023-05-06T18:03:25.310Z,51.03
2023-05-06T18:05:53.052Z,51.07
2023-05-06T18:08:20.697Z,51.24
2023-05-06T18:10:48.338Z,51.27
2023-05-06T18:13:16.366Z,51.49
2023-05-06T18:15:44.022Z,51.81
2023-05-06T18:18:11.804Z,52.01
2023-05-06T18:20:40.550Z,52.30
2023-05-06T18:23:08.198Z,52.22
2023-05-06T18:25:35.854Z,52.24
2023-05-06T18:28:05.382Z,51.86
2023-05-06T18:30:32.996Z,51.60
2023-05-06T18:33:00.855Z,51.69
2023-05-06T18:35:28.508Z,52.10
2023-05-06T18:37:56.116Z,52.08
2023-05-06T18:40:23.812Z,52.18
2023-05-06T18:42:51.545Z,51.99
2023-05-06T18:45:19.259Z,52.04
2023-05-06T18:47:46.898Z,52.07
2023-05-06T18:50:14.599Z,52.02
2023-05-06T18:52:42.639Z,52.04
2023-05-06T18:55:10.954Z,51.91
2023-05-06T18:57:39.503Z,51.95
2023-05-06T19:00:07.995Z,51.99
2023-05-06T19:02:35.648Z,51.91
2023-05-06T19:05:03.432Z,52.15
2023-05-06T19:07:31.043Z,52.08
2023-05-06T19:09:58.640Z,51.93
2023-05-06T19:12:26.275Z,52.05
2023-05-06T19:14:53.888Z,52.62
2023-05-06T19:17:21.563Z,52.95
2023-05-06T19:19:49.304Z,53.02
2023-05-06T19:22:16.993Z,53.06
2023-05-06T19:24:44.841Z,53.00
2023-05-06T19:27:12.450Z,53.37
2023-05-06T19:29:40.056Z,53.03
2023-05-06T19:32:08.515Z,53.56
2023-05-06T19:34:36.615Z,53.51
2023-05-06T19:37:04.238Z,53.18
2023-05-06T19:39:31.851Z,53.25
2023-05-06T19:41:59.460Z,53.58
2023-05-06T19:44:27.049Z,53.70
2023-05-06T19:46:54.640Z,54.01
2023-05-06T19:49:22.483Z,53.97
2023-05-06T19:51:50.080Z,54.05
2023-05-06T19:54:19.228Z,54.03
2023-05-06T19:56:46.852Z,54.09
2023-05-06T19:59:14.621Z,54.20
2023-05-06T20:01:42.315Z,54.37
2023-05-06T20:04:10.396Z,54.41
2023-05-06T20:06:38.081Z,54.46
2023-05-06T20:09:05.781Z,54.64
2023-05-06T20:11:33.444Z,55.05
2023-05-06T20:14:01.294Z,55.00
2023-05-06T20:16:28.910Z,55.26
2023-05-06T20:18:57.083Z,55.56
2023-05-06T20:21:24.685Z,55.43
2023-05-06T20:23:52.316Z,55.28
2023-05-06T20:26:19.945Z,55.24
2023-05-06T20:28:47.953Z,55.42
2023-05-06T20:31:15.765Z,55.96
2023-05-06T20:33:43.470Z,55.78
2023-05-06T20:36:11.144Z,55.78
2023-05-06T20:38:38.757Z,55.76
2023-05-06T20:41:06.350Z,55.93
2023-05-06T20:43:35.184Z,55.96
2023-05-06T20:46:03.099Z,55.78
2023-05-06T20:48:31.915Z,55.80
2023-05-06T20:50:59.573Z,56.04
2023-05-06T20:53:27.252Z,55.92
2023-05-06T20:55:55.212Z,56.09
2023-05-06T20:58:22.924Z,56.68
2023-05-06T21:00:50.726Z,56.53
2023-05-06T21:03:18.488Z,56.68
2023-05-06T21:05:46.196Z,56.91
2023-05-06T21:08:13.953Z,56.76
2023-05-06T21:10:41.615Z,56.96
2023-05-06T21:13:09.302Z,56.82
2023-05-06T21:15:37.924Z,56.99
2023-05-06T21:18:06.024Z,56.82
2023-05-06T21:20:33.838Z,56.76
2023-05-06T21:23:03.411Z,56.86
2023-05-06T21:25:31.051Z,56.87
2023-05-06T21:28:03.124Z,57.05
2023-05-06T21:30:31.215Z,56.95
2023-05-06T21:32:58.890Z,57.26
2023-05-06T21:35:26.750Z,57.03
2023-05-06T21:37:54.335Z,56.49
2023-05-06T21:40:22.368Z,56.28
2023-05-06T21:42:51.142Z,56.19
2023-05-06T21:45:21.697Z,56.04
2023-05-06T21:47:49.414Z,55.99
2023-05-06T21:50:17.212Z,56.03
2023-05-06T21:52:44.852Z,55.95
2023-05-06T21:55:12.749Z,55.95
2023-05-06T21:57:40.650Z,55.90
2023-05-06T22:00:12.166Z,55.91
2023-05-06T22:02:40.770Z,55.91
2023-05-06T22:05:09.217Z,56.08
2023-05-06T22:07:37.470Z,56.52
2023-05-06T22:10:06.078Z,57.02
2023-05-06T22:12:35.225Z,57.51
2023-05-06T22:15:03.458Z,57.65
2023-05-06T22:17:32.751Z,58.02
2023-05-06T22:20:04.184Z,58.22
2023-05-06T22:22:32.290Z,58.37
2023-05-06T22:25:00.372Z,58.40
2023-05-06T22:27:27.983Z,58.71
2023-05-06T22:29:55.902Z,58.80
2023-05-06T22:32:23.541Z,58.87
2023-05-06T22:34:51.162Z,58.43
2023-05-06T22:37:19.604Z,58.36
2023-05-06T22:39:47.474Z,58.35
2023-05-06T22:42:15.852Z,58.39
2023-05-06T22:44:43.521Z,58.47
2023-05-06T22:47:11.502Z,58.65
2023-05-06T22:49:39.109Z,58.47
2023-05-06T22:52:06.955Z,58.37
2023-05-06T22:54:34.579Z,58.33
2023-05-06T22:57:02.251Z,58.20
2023-05-06T22:59:30.394Z,58.04
2023-05-06T23:01:58.048Z,58.01
2023-05-06T23:04:25.654Z,58.00
2023-05-06T23:06:53.338Z,57.86
2023-05-06T23:09:20.968Z,57.80
2023-05-06T23:11:48.707Z,57.67
2023-05-06T23:14:17.234Z,57.66
2023-05-06T23:16:44.988Z,57.61
2023-05-06T23:19:12.760Z,57.86
2023-05-06T23:21:41.476Z,57.96
2023-05-06T23:24:09.724Z,57.90
2023-05-06T23:26:37.359Z,57.97
2023-05-06T23:29:05.117Z,58.34
2023-05-06T23:31:32.800Z,58.38
2023-05-06T23:34:00.758Z,58.30
2023-05-06T23:36:28.450Z,58.46
2023-05-06T23:38:56.406Z,58.58
2023-05-06T23:41:24.360Z,58.69
2023-05-06T23:43:51.938Z,58.78
2023-05-06T23:46:19.629Z,58.68
2023-05-06T23:48:47.293Z,58.55
2023-05-06T23:51:14.923Z,58.67
2023-05-06T23:53:42.554Z,58.67
2023-05-06T23:56:10.230Z,58.74
2023-05-06T23:58:37.820Z,58.69
